sensor_id;sensor_type;location;lat;lon;timestamp;pressure;altitude;pressure_sealevel;temperature;humidity
21869;BME280;11099;41.564;23.296;2023-08-17T00:01:26;97370.03;;;25.78;65.40
21869;BME280;11099;41.564;23.296;2023-08-17T00:03:51;97294.59;;;25.00;66.77
21869;BME280;11099;41.564;23.296;2023-08-17T00:06:17;97372.50;;;25.31;68.65
21869;BME280;11099;41.564;23.296;2023-08-17T00:08:42;97389.66;;;25.62;68.75
21869;BME280;11099;41.564;23.296;2023-08-17T00:11:08;97311.88;;;24.86;69.64
21869;BME280;11099;41.564;23.296;2023-08-17T00:13:34;97294.25;;;25.32;66.00
21869;BME280;11099;41.564;23.296;2023-08-17T00:16:00;97426.59;;;26.01;66.21
21869;BME280;11099;41.564;23.296;2023-08-17T00:18:25;97286.59;;;24.89;67.82
21869;BME280;11099;41.564;23.296;2023-08-17T00:20:51;97369.16;;;25.85;65.48
21869;BME280;11099;41.564;23.296;2023-08-17T00:23:16;97327.53;;;25.81;63.66
21869;BME280;11099;41.564;23.296;2023-08-17T00:25:42;97367.72;;;26.04;64.24
21869;BME280;11099;41.564;23.296;2023-08-17T00:28:07;97334.44;;;25.89;64.02
21869;BME280;11099;41.564;23.296;2023-08-17T00:30:33;97291.13;;;24.99;66.73
21869;BME280;11099;41.564;23.296;2023-08-17T00:33:02;97399.25;;;25.78;66.80
21869;BME280;11099;41.564;23.296;2023-08-17T00:35:27;97236.09;;;24.81;66.25
21869;BME280;11099;41.564;23.296;2023-08-17T00:37:53;97404.34;;;25.72;67.21
21869;BME280;11099;41.564;23.296;2023-08-17T00:40:19;97318.44;;;24.92;67.95
21869;BME280;11099;41.564;23.296;2023-08-17T00:42:44;97424.06;;;25.49;69.47
21869;BME280;11099;41.564;23.296;2023-08-17T00:45:10;97305.94;;;24.57;70.40
21869;BME280;11099;41.564;23.296;2023-08-17T00:47:35;97390.72;;;25.00;70.72
21869;BME280;11099;41.564;23.296;2023-08-17T00:50:01;97309.69;;;24.70;70.39
21869;BME280;11099;41.564;23.296;2023-08-17T00:52:28;97331.56;;;25.01;69.62
21869;BME280;11099;41.564;23.296;2023-08-17T00:54:56;97248.19;;;24.76;68.68
21869;BME280;11099;41.564;23.296;2023-08-17T00:57:23;97411.84;;;25.64;69.46
21869;BME280;11099;41.564;23.296;2023-08-17T00:59:49;97259.63;;;24.98;67.71
21869;BME280;11099;41.564;23.296;2023-08-17T01:02:17;97326.50;;;25.37;66.52
21869;BME280;11099;41.564;23.296;2023-08-17T01:04:42;97336.84;;;25.83;65.88
21869;BME280;11099;41.564;23.296;2023-08-17T01:07:08;97396.06;;;25.83;67.28
21869;BME280;11099;41.564;23.296;2023-08-17T01:09:33;97345.00;;;24.77;70.30
21869;BME280;11099;41.564;23.296;2023-08-17T01:12:08;97323.16;;;24.47;71.58
21869;BME280;11099;41.564;23.296;2023-08-17T01:17:40;97403.84;;;25.50;69.59
21869;BME280;11099;41.564;23.296;2023-08-17T01:20:08;97321.25;;;25.22;68.32
21869;BME280;11099;41.564;23.296;2023-08-17T01:22:35;97276.53;;;24.82;68.91
21869;BME280;11099;41.564;23.296;2023-08-17T01:25:02;97340.50;;;25.39;68.24
21869;BME280;11099;41.564;23.296;2023-08-17T01:27:38;97271.59;;;25.04;67.37
21869;BME280;11099;41.564;23.296;2023-08-17T01:30:05;97409.88;;;25.31;70.28
21869;BME280;11099;41.564;23.296;2023-08-17T01:32:37;97326.63;;;24.88;69.92
21869;BME280;11099;41.564;23.296;2023-08-17T01:37:57;97300.09;;;24.96;69.83
21869;BME280;11099;41.564;23.296;2023-08-17T01:40:26;97372.56;;;25.58;68.24
21869;BME280;11099;41.564;23.296;2023-08-17T01:42:54;97320.63;;;25.04;68.88
21869;BME280;11099;41.564;23.296;2023-08-17T01:45:20;97409.94;;;25.61;68.56
21869;BME280;11099;41.564;23.296;2023-08-17T01:47:45;97365.63;;;24.78;70.45
21869;BME280;11099;41.564;23.296;2023-08-17T01:50:11;97367.63;;;25.15;69.16
21869;BME280;11099;41.564;23.296;2023-08-17T01:52:36;97263.34;;;24.39;68.98
21869;BME280;11099;41.564;23.296;2023-08-17T01:55:02;97323.31;;;25.11;67.37
21869;BME280;11099;41.564;23.296;2023-08-17T01:57:27;97335.06;;;25.39;66.43
21869;BME280;11099;41.564;23.296;2023-08-17T01:59:53;97330.63;;;25.18;67.29
21869;BME280;11099;41.564;23.296;2023-08-17T02:02:18;97274.19;;;24.43;69.23
21869;BME280;11099;41.564;23.296;2023-08-17T02:04:44;97342.34;;;24.74;70.14
21869;BME280;11099;41.564;23.296;2023-08-17T02:07:09;97272.97;;;24.03;70.83
21869;BME280;11099;41.564;23.296;2023-08-17T02:09:35;97347.28;;;24.41;71.79
21869;BME280;11099;41.564;23.296;2023-08-17T02:12:00;97255.59;;;23.86;71.68
21869;BME280;11099;41.564;23.296;2023-08-17T02:14:26;97304.41;;;24.04;72.88
21869;BME280;11099;41.564;23.296;2023-08-17T02:16:52;97377.06;;;24.59;73.57
21869;BME280;11099;41.564;23.296;2023-08-17T02:19:17;97269.69;;;23.70;75.15
21869;BME280;11099;41.564;23.296;2023-08-17T02:21:43;97252.50;;;23.84;74.68
21869;BME280;11099;41.564;23.296;2023-08-17T02:24:09;97336.47;;;24.30;75.18
21869;BME280;11099;41.564;23.296;2023-08-17T02:26:35;97384.63;;;24.37;76.05
21869;BME280;11099;41.564;23.296;2023-08-17T02:29:00;97305.50;;;24.13;75.33
21869;BME280;11099;41.564;23.296;2023-08-17T02:31:26;97447.59;;;24.91;75.56
21869;BME280;11099;41.564;23.296;2023-08-17T02:33:51;97308.31;;;23.99;75.63
21869;BME280;11099;41.564;23.296;2023-08-17T02:36:17;97400.72;;;24.65;75.57
21869;BME280;11099;41.564;23.296;2023-08-17T02:38:42;97446.38;;;24.95;75.31
21869;BME280;11099;41.564;23.296;2023-08-17T02:41:08;97355.38;;;24.48;73.53
21869;BME280;11099;41.564;23.296;2023-08-17T02:43:33;97349.38;;;24.15;74.25
21869;BME280;11099;41.564;23.296;2023-08-17T02:45:59;97330.00;;;24.06;74.99
21869;BME280;11099;41.564;23.296;2023-08-17T02:48:24;97304.19;;;23.80;74.89
21869;BME280;11099;41.564;23.296;2023-08-17T02:50:50;97390.91;;;24.23;76.14
21869;BME280;11099;41.564;23.296;2023-08-17T02:53:15;97374.66;;;24.12;76.27
21869;BME280;11099;41.564;23.296;2023-08-17T02:55:41;97392.53;;;24.10;76.21
21869;BME280;11099;41.564;23.296;2023-08-17T02:58:06;97315.97;;;23.52;76.52
21869;BME280;11099;41.564;23.296;2023-08-17T03:00:32;97405.00;;;24.04;78.06
21869;BME280;11099;41.564;23.296;2023-08-17T03:02:57;97360.44;;;23.83;77.50
21869;BME280;11099;41.564;23.296;2023-08-17T03:05:23;97393.78;;;23.95;77.66
21869;BME280;11099;41.564;23.296;2023-08-17T03:07:48;97313.97;;;23.63;77.58
21869;BME280;11099;41.564;23.296;2023-08-17T03:10:14;97292.41;;;23.21;78.56
21869;BME280;11099;41.564;23.296;2023-08-17T03:12:39;97367.06;;;23.86;78.28
21869;BME280;11099;41.564;23.296;2023-08-17T03:15:06;97404.59;;;24.09;78.81
21869;BME280;11099;41.564;23.296;2023-08-17T03:17:31;97425.06;;;24.35;78.68
21869;BME280;11099;41.564;23.296;2023-08-17T03:19:57;97377.50;;;23.91;79.57
21869;BME280;11099;41.564;23.296;2023-08-17T03:22:25;97300.44;;;23.49;79.48
21869;BME280;11099;41.564;23.296;2023-08-17T03:24:51;97368.16;;;23.96;79.32
21869;BME280;11099;41.564;23.296;2023-08-17T03:27:16;97379.88;;;23.85;80.41
21869;BME280;11099;41.564;23.296;2023-08-17T03:29:42;97404.66;;;23.98;81.10
21869;BME280;11099;41.564;23.296;2023-08-17T03:32:07;97337.56;;;23.77;78.74
21869;BME280;11099;41.564;23.296;2023-08-17T03:34:33;97365.56;;;23.71;78.85
21869;BME280;11099;41.564;23.296;2023-08-17T03:36:58;97344.91;;;23.84;79.12
21869;BME280;11099;41.564;23.296;2023-08-17T03:39:23;97451.88;;;24.29;80.06
21869;BME280;11099;41.564;23.296;2023-08-17T03:41:49;97381.31;;;24.01;80.01
21869;BME280;11099;41.564;23.296;2023-08-17T03:44:14;97334.03;;;23.91;79.76
21869;BME280;11099;41.564;23.296;2023-08-17T03:46:41;97341.84;;;23.82;79.65
21869;BME280;11099;41.564;23.296;2023-08-17T03:49:06;97418.03;;;24.34;79.54
21869;BME280;11099;41.564;23.296;2023-08-17T03:51:32;97366.81;;;24.25;79.24
21869;BME280;11099;41.564;23.296;2023-08-17T03:53:57;97330.59;;;23.80;79.92
21869;BME280;11099;41.564;23.296;2023-08-17T03:56:23;97377.81;;;24.04;79.88
21869;BME280;11099;41.564;23.296;2023-08-17T03:58:50;97335.91;;;23.98;79.14
21869;BME280;11099;41.564;23.296;2023-08-17T04:01:15;97379.03;;;23.96;79.58
21869;BME280;11099;41.564;23.296;2023-08-17T04:03:41;97332.97;;;23.67;79.99
21869;BME280;11099;41.564;23.296;2023-08-17T04:06:07;97449.91;;;24.33;80.71
21869;BME280;11099;41.564;23.296;2023-08-17T04:08:38;97426.69;;;24.18;80.29
21869;BME280;11099;41.564;23.296;2023-08-17T04:11:04;97355.28;;;23.16;82.82
21869;BME280;11099;41.564;23.296;2023-08-17T04:13:30;97461.44;;;23.78;82.93
21869;BME280;11099;41.564;23.296;2023-08-17T04:15:55;97344.31;;;23.44;81.60
21869;BME280;11099;41.564;23.296;2023-08-17T04:18:21;97448.88;;;24.09;81.39
21869;BME280;11099;41.564;23.296;2023-08-17T04:20:46;97411.22;;;24.01;80.78
21869;BME280;11099;41.564;23.296;2023-08-17T04:23:12;97368.69;;;23.69;80.78
21869;BME280;11099;41.564;23.296;2023-08-17T04:25:37;97338.75;;;23.73;80.43
21869;BME280;11099;41.564;23.296;2023-08-17T04:28:03;97374.34;;;24.00;79.60
21869;BME280;11099;41.564;23.296;2023-08-17T04:30:29;97441.41;;;24.83;78.08
21869;BME280;11099;41.564;23.296;2023-08-17T04:32:54;97428.34;;;24.64;77.82
21869;BME280;11099;41.564;23.296;2023-08-17T04:35:20;97456.19;;;25.31;75.15
21869;BME280;11099;41.564;23.296;2023-08-17T04:37:46;97351.06;;;24.54;75.66
21869;BME280;11099;41.564;23.296;2023-08-17T04:40:13;97390.06;;;24.85;75.34
21869;BME280;11099;41.564;23.296;2023-08-17T04:42:39;97427.31;;;24.95;75.44
21869;BME280;11099;41.564;23.296;2023-08-17T04:45:05;97351.09;;;24.51;75.91
21869;BME280;11099;41.564;23.296;2023-08-17T04:47:30;97372.03;;;24.98;74.27
21869;BME280;11099;41.564;23.296;2023-08-17T04:49:56;97348.16;;;26.09;70.25
21869;BME280;11099;41.564;23.296;2023-08-17T04:52:21;97399.03;;;25.61;72.33
21869;BME280;11099;41.564;23.296;2023-08-17T04:54:46;97363.56;;;26.22;70.08
21869;BME280;11099;41.564;23.296;2023-08-17T04:57:12;97458.75;;;26.98;69.18
21869;BME280;11099;41.564;23.296;2023-08-17T04:59:37;97398.06;;;26.87;67.70
21869;BME280;11099;41.564;23.296;2023-08-17T05:02:03;97429.84;;;27.44;65.47
21869;BME280;11099;41.564;23.296;2023-08-17T05:04:30;97441.25;;;26.92;67.29
21869;BME280;11099;41.564;23.296;2023-08-17T05:06:56;97394.22;;;27.27;65.06
21869;BME280;11099;41.564;23.296;2023-08-17T05:09:22;97369.53;;;27.11;64.20
21869;BME280;11099;41.564;23.296;2023-08-17T05:11:47;97439.28;;;26.69;68.23
21869;BME280;11099;41.564;23.296;2023-08-17T05:14:13;97397.53;;;26.18;68.61
21869;BME280;11099;41.564;23.296;2023-08-17T05:16:38;97402.94;;;27.19;65.13
21869;BME280;11099;41.564;23.296;2023-08-17T05:19:04;97410.34;;;27.42;63.85
21869;BME280;11099;41.564;23.296;2023-08-17T05:21:29;97437.47;;;26.86;66.68
21869;BME280;11099;41.564;23.296;2023-08-17T05:23:55;97446.31;;;27.60;63.93
21869;BME280;11099;41.564;23.296;2023-08-17T05:26:21;97444.78;;;27.59;64.09
21869;BME280;11099;41.564;23.296;2023-08-17T05:28:47;97497.38;;;28.06;63.53
21869;BME280;11099;41.564;23.296;2023-08-17T05:31:12;97438.41;;;27.22;64.66
21869;BME280;11099;41.564;23.296;2023-08-17T05:33:38;97454.75;;;27.89;62.18
21869;BME280;11099;41.564;23.296;2023-08-17T05:36:06;97439.22;;;27.43;63.61
21869;BME280;11099;41.564;23.296;2023-08-17T05:38:32;97398.38;;;27.75;61.47
21869;BME280;11099;41.564;23.296;2023-08-17T05:40:58;97395.19;;;27.97;60.25
21869;BME280;11099;41.564;23.296;2023-08-17T05:43:24;97443.78;;;28.09;61.76
21869;BME280;11099;41.564;23.296;2023-08-17T05:45:50;97440.97;;;28.49;60.22
21869;BME280;11099;41.564;23.296;2023-08-17T05:48:15;97413.25;;;28.10;60.88
21869;BME280;11099;41.564;23.296;2023-08-17T05:50:41;97463.50;;;28.20;61.96
21869;BME280;11099;41.564;23.296;2023-08-17T05:53:07;97431.50;;;28.53;59.51
21869;BME280;11099;41.564;23.296;2023-08-17T05:55:33;97478.63;;;29.43;56.45
21869;BME280;11099;41.564;23.296;2023-08-17T05:57:58;97432.97;;;27.86;61.79
21869;BME280;11099;41.564;23.296;2023-08-17T06:00:24;97440.16;;;28.32;60.54
21869;BME280;11099;41.564;23.296;2023-08-17T06:02:49;97466.41;;;28.82;58.21
21869;BME280;11099;41.564;23.296;2023-08-17T06:05:17;97374.91;;;28.96;54.94
21869;BME280;11099;41.564;23.296;2023-08-17T06:07:43;97482.41;;;29.78;54.95
21869;BME280;11099;41.564;23.296;2023-08-17T06:10:09;97398.56;;;29.77;53.02
21869;BME280;11099;41.564;23.296;2023-08-17T06:12:35;97389.78;;;29.82;52.49
21869;BME280;11099;41.564;23.296;2023-08-17T06:15:04;97482.88;;;30.94;50.46
21869;BME280;11099;41.564;23.296;2023-08-17T06:17:30;97451.53;;;31.05;49.53
21869;BME280;11099;41.564;23.296;2023-08-17T06:19:55;97439.69;;;30.95;49.31
21869;BME280;11099;41.564;23.296;2023-08-17T06:22:21;97460.91;;;30.43;49.99
21869;BME280;11099;41.564;23.296;2023-08-17T06:24:47;97366.06;;;29.88;50.35
21869;BME280;11099;41.564;23.296;2023-08-17T06:27:14;97395.31;;;30.07;50.77
21869;BME280;11099;41.564;23.296;2023-08-17T06:29:40;97332.16;;;29.69;50.93
21869;BME280;11099;41.564;23.296;2023-08-17T06:32:06;97414.44;;;30.24;50.29
21869;BME280;11099;41.564;23.296;2023-08-17T06:34:32;97411.00;;;30.07;50.31
21869;BME280;11099;41.564;23.296;2023-08-17T06:36:59;97477.41;;;30.69;50.44
21869;BME280;11099;41.564;23.296;2023-08-17T06:39:25;97470.34;;;30.68;50.76
21869;BME280;11099;41.564;23.296;2023-08-17T06:41:50;97415.97;;;30.50;50.40
21869;BME280;11099;41.564;23.296;2023-08-17T06:44:16;97421.34;;;30.54;50.25
21869;BME280;11099;41.564;23.296;2023-08-17T06:46:41;97459.38;;;30.81;50.13
21869;BME280;11099;41.564;23.296;2023-08-17T06:49:07;97505.88;;;30.88;50.08
21869;BME280;11099;41.564;23.296;2023-08-17T06:51:34;97432.34;;;30.15;51.39
21869;BME280;11099;41.564;23.296;2023-08-17T06:53:59;97367.72;;;29.85;50.74
21869;BME280;11099;41.564;23.296;2023-08-17T06:56:25;97487.97;;;30.83;50.30
21869;BME280;11099;41.564;23.296;2023-08-17T06:58:50;97429.03;;;30.59;49.84
21869;BME280;11099;41.564;23.296;2023-08-17T07:01:16;97403.66;;;30.42;49.29
21869;BME280;11099;41.564;23.296;2023-08-17T07:03:41;97450.59;;;30.73;49.20
21869;BME280;11099;41.564;23.296;2023-08-17T07:06:09;97474.09;;;31.00;49.71
21869;BME280;11099;41.564;23.296;2023-08-17T07:08:35;97453.31;;;30.86;49.27
21869;BME280;11099;41.564;23.296;2023-08-17T07:11:00;97378.94;;;29.20;51.83
21869;BME280;11099;41.564;23.296;2023-08-17T07:13:26;97447.19;;;30.56;50.26
21869;BME280;11099;41.564;23.296;2023-08-17T07:15:52;97376.72;;;30.88;48.07
21869;BME280;11099;41.564;23.296;2023-08-17T07:18:18;97477.59;;;31.82;46.96
21869;BME280;11099;41.564;23.296;2023-08-17T07:20:43;97429.75;;;31.89;45.49
21869;BME280;11099;41.564;23.296;2023-08-17T07:23:09;97417.81;;;31.48;46.75
21869;BME280;11099;41.564;23.296;2023-08-17T07:25:34;97367.97;;;31.02;46.33
21869;BME280;11099;41.564;23.296;2023-08-17T07:28:00;97478.06;;;31.68;46.74
21869;BME280;11099;41.564;23.296;2023-08-17T07:30:25;97380.28;;;30.98;45.64
21869;BME280;11099;41.564;23.296;2023-08-17T07:32:51;97379.69;;;31.15;45.13
21869;BME280;11099;41.564;23.296;2023-08-17T07:35:16;97450.34;;;31.62;45.39
21869;BME280;11099;41.564;23.296;2023-08-17T07:37:42;97444.75;;;31.31;45.86
21869;BME280;11099;41.564;23.296;2023-08-17T07:40:07;97446.19;;;31.23;46.15
21869;BME280;11099;41.564;23.296;2023-08-17T07:42:33;97360.75;;;30.23;45.94
21869;BME280;11099;41.564;23.296;2023-08-17T07:44:59;97438.16;;;31.29;44.66
21869;BME280;11099;41.564;23.296;2023-08-17T07:47:24;97460.31;;;31.69;43.66
21869;BME280;11099;41.564;23.296;2023-08-17T07:49:50;97472.97;;;32.63;41.29
21869;BME280;11099;41.564;23.296;2023-08-17T07:52:15;97419.56;;;31.98;42.38
21869;BME280;11099;41.564;23.296;2023-08-17T07:54:41;97384.19;;;31.88;42.40
21869;BME280;11099;41.564;23.296;2023-08-17T07:57:06;97370.72;;;31.90;41.93
21869;BME280;11099;41.564;23.296;2023-08-17T07:59:32;97431.09;;;31.84;42.78
21869;BME280;11099;41.564;23.296;2023-08-17T08:01:57;97470.66;;;31.78;42.74
21869;BME280;11099;41.564;23.296;2023-08-17T08:04:23;97403.84;;;31.55;43.09
21869;BME280;11099;41.564;23.296;2023-08-17T08:06:48;97444.97;;;32.03;41.72
21869;BME280;11099;41.564;23.296;2023-08-17T08:09:14;97429.75;;;31.89;41.44
21869;BME280;11099;41.564;23.296;2023-08-17T08:11:39;97402.09;;;31.70;40.92
21869;BME280;11099;41.564;23.296;2023-08-17T08:14:05;97352.44;;;30.74;42.63
21869;BME280;11099;41.564;23.296;2023-08-17T08:16:30;97391.22;;;31.89;41.41
21869;BME280;11099;41.564;23.296;2023-08-17T08:18:56;97434.31;;;32.45;40.47
21869;BME280;11099;41.564;23.296;2023-08-17T08:21:21;97434.06;;;32.21;40.95
21869;BME280;11099;41.564;23.296;2023-08-17T08:23:47;97397.56;;;32.08;40.81
21869;BME280;11099;41.564;23.296;2023-08-17T08:26:12;97408.34;;;32.24;39.93
21869;BME280;11099;41.564;23.296;2023-08-17T08:28:39;97356.00;;;32.15;39.85
21869;BME280;11099;41.564;23.296;2023-08-17T08:31:05;97398.63;;;32.41;40.35
21869;BME280;11099;41.564;23.296;2023-08-17T08:33:31;97456.91;;;32.80;39.93
21869;BME280;11099;41.564;23.296;2023-08-17T08:35:57;97416.66;;;32.83;39.67
21869;BME280;11099;41.564;23.296;2023-08-17T08:38:22;97392.75;;;32.70;39.10
21869;BME280;11099;41.564;23.296;2023-08-17T08:40:48;97435.88;;;33.14;38.57
21869;BME280;11099;41.564;23.296;2023-08-17T08:43:16;97429.63;;;33.13;38.34
21869;BME280;11099;41.564;23.296;2023-08-17T08:45:43;97436.34;;;33.40;37.86
21869;BME280;11099;41.564;23.296;2023-08-17T08:48:11;97392.22;;;33.03;38.27
21869;BME280;11099;41.564;23.296;2023-08-17T08:50:40;97313.88;;;31.65;39.40
21869;BME280;11099;41.564;23.296;2023-08-17T08:53:11;97417.41;;;32.74;38.49
21869;BME280;11099;41.564;23.296;2023-08-17T08:55:44;97371.91;;;32.11;38.95
21869;BME280;11099;41.564;23.296;2023-08-17T08:58:14;97319.00;;;32.34;38.49
21869;BME280;11099;41.564;23.296;2023-08-17T09:00:41;97315.34;;;32.28;38.52
21869;BME280;11099;41.564;23.296;2023-08-17T09:03:09;97366.25;;;32.73;37.70
21869;BME280;11099;41.564;23.296;2023-08-17T09:05:35;97412.00;;;33.47;37.36
21869;BME280;11099;41.564;23.296;2023-08-17T09:08:02;97408.44;;;33.38;37.37
21869;BME280;11099;41.564;23.296;2023-08-17T09:10:28;97381.31;;;33.36;36.61
21869;BME280;11099;41.564;23.296;2023-08-17T09:12:53;97329.66;;;33.37;36.21
21869;BME280;11099;41.564;23.296;2023-08-17T09:15:19;97374.91;;;33.48;36.93
21869;BME280;11099;41.564;23.296;2023-08-17T09:17:44;97389.88;;;33.75;36.00
21869;BME280;11099;41.564;23.296;2023-08-17T09:20:42;97388.91;;;33.87;36.01
21869;BME280;11099;41.564;23.296;2023-08-17T09:23:20;97334.72;;;33.38;35.93
21869;BME280;11099;41.564;23.296;2023-08-17T09:25:47;97314.16;;;33.58;35.67
21869;BME280;11099;41.564;23.296;2023-08-17T09:28:14;97346.28;;;33.79;36.00
21869;BME280;11099;41.564;23.296;2023-08-17T09:30:57;97307.72;;;33.51;35.99
21869;BME280;11099;41.564;23.296;2023-08-17T09:33:25;97360.25;;;33.75;36.20
21869;BME280;11099;41.564;23.296;2023-08-17T09:35:52;97265.75;;;33.38;36.23
21869;BME280;11099;41.564;23.296;2023-08-17T09:38:19;97367.38;;;34.10;35.52
21869;BME280;11099;41.564;23.296;2023-08-17T09:40:45;97344.75;;;33.96;34.85
21869;BME280;11099;41.564;23.296;2023-08-17T09:43:10;97358.56;;;34.29;35.00
21869;BME280;11099;41.564;23.296;2023-08-17T09:45:39;97291.78;;;33.89;34.91
21869;BME280;11099;41.564;23.296;2023-08-17T09:48:06;97346.66;;;34.14;35.29
21869;BME280;11099;41.564;23.296;2023-08-17T09:50:31;97283.94;;;33.63;35.36
21869;BME280;11099;41.564;23.296;2023-08-17T09:52:57;97309.50;;;33.73;35.37
21869;BME280;11099;41.564;23.296;2023-08-17T09:55:23;97282.28;;;33.90;34.20
21869;BME280;11099;41.564;23.296;2023-08-17T09:57:50;97338.59;;;34.25;33.88
21869;BME280;11099;41.564;23.296;2023-08-17T10:00:18;97273.47;;;34.33;33.85
21869;BME280;11099;41.564;23.296;2023-08-17T10:02:44;97306.22;;;33.93;33.49
21869;BME280;11099;41.564;23.296;2023-08-17T10:05:11;97309.34;;;34.19;33.10
21869;BME280;11099;41.564;23.296;2023-08-17T10:07:42;97220.75;;;33.89;32.33
21869;BME280;11099;41.564;23.296;2023-08-17T10:10:09;97297.88;;;34.59;31.52
21869;BME280;11099;41.564;23.296;2023-08-17T10:12:45;97301.72;;;34.62;32.34
21869;BME280;11099;41.564;23.296;2023-08-17T10:15:15;97208.28;;;34.03;32.69
21869;BME280;11099;41.564;23.296;2023-08-17T10:17:51;97278.69;;;34.79;31.48
21869;BME280;11099;41.564;23.296;2023-08-17T10:20:21;97271.91;;;34.80;30.79
21869;BME280;11099;41.564;23.296;2023-08-17T10:25:13;97215.69;;;33.64;32.30
21869;BME280;11099;41.564;23.296;2023-08-17T10:27:41;97292.28;;;34.20;32.23
21869;BME280;11099;41.564;23.296;2023-08-17T10:30:11;97253.00;;;34.16;32.02
21869;BME280;11099;41.564;23.296;2023-08-17T10:32:38;97304.59;;;34.67;31.30
21869;BME280;11099;41.564;23.296;2023-08-17T10:35:06;97264.75;;;34.89;31.20
21869;BME280;11099;41.564;23.296;2023-08-17T10:37:33;97267.72;;;34.85;30.60
21869;BME280;11099;41.564;23.296;2023-08-17T10:39:59;97209.34;;;34.29;31.12
21869;BME280;11099;41.564;23.296;2023-08-17T10:44:57;97237.75;;;34.30;31.53
21869;BME280;11099;41.564;23.296;2023-08-17T10:47:28;97199.28;;;34.17;31.17
21869;BME280;11099;41.564;23.296;2023-08-17T10:50:03;97271.91;;;34.80;30.50
21869;BME280;11099;41.564;23.296;2023-08-17T10:52:31;97255.44;;;34.47;30.31
21869;BME280;11099;41.564;23.296;2023-08-17T10:55:05;97261.91;;;34.83;30.96
21869;BME280;11099;41.564;23.296;2023-08-17T10:57:36;97263.19;;;35.26;29.94
21869;BME280;11099;41.564;23.296;2023-08-17T11:02:37;97144.50;;;34.54;30.03
21869;BME280;11099;41.564;23.296;2023-08-17T11:05:03;97179.94;;;34.41;30.30
21869;BME280;11099;41.564;23.296;2023-08-17T11:07:50;97219.06;;;34.64;30.21
21869;BME280;11099;41.564;23.296;2023-08-17T11:12:45;97230.16;;;34.40;29.28
21869;BME280;11099;41.564;23.296;2023-08-17T11:15:12;97138.78;;;33.80;29.37
21869;BME280;11099;41.564;23.296;2023-08-17T11:17:46;97231.16;;;34.66;29.29
21869;BME280;11099;41.564;23.296;2023-08-17T11:20:12;97180.00;;;34.32;29.59
21869;BME280;11099;41.564;23.296;2023-08-17T11:22:37;97222.66;;;34.94;29.28
21869;BME280;11099;41.564;23.296;2023-08-17T11:25:04;97208.72;;;35.03;27.62
21869;BME280;11099;41.564;23.296;2023-08-17T11:27:30;97245.16;;;35.31;27.62
21869;BME280;11099;41.564;23.296;2023-08-17T11:29:56;97244.97;;;35.34;28.13
21869;BME280;11099;41.564;23.296;2023-08-17T11:32:21;97204.03;;;35.38;27.35
21869;BME280;11099;41.564;23.296;2023-08-17T11:34:47;97186.72;;;35.58;28.00
21869;BME280;11099;41.564;23.296;2023-08-17T11:37:12;97114.41;;;35.01;27.18
21869;BME280;11099;41.564;23.296;2023-08-17T11:39:38;97222.84;;;35.84;27.09
21869;BME280;11099;41.564;23.296;2023-08-17T11:42:04;97207.44;;;35.63;27.63
21869;BME280;11099;41.564;23.296;2023-08-17T11:44:29;97166.09;;;35.59;27.23
21869;BME280;11099;41.564;23.296;2023-08-17T11:46:55;97198.38;;;35.62;27.49
21869;BME280;11099;41.564;23.296;2023-08-17T11:49:20;97208.72;;;35.82;27.79
21869;BME280;11099;41.564;23.296;2023-08-17T11:51:50;97179.56;;;35.87;27.71
21869;BME280;11099;41.564;23.296;2023-08-17T11:54:16;97177.63;;;35.73;27.55
21869;BME280;11099;41.564;23.296;2023-08-17T11:56:41;97122.41;;;34.99;27.05
21869;BME280;11099;41.564;23.296;2023-08-17T11:59:11;97222.53;;;35.97;27.77
21869;BME280;11099;41.564;23.296;2023-08-17T12:01:44;97213.75;;;35.99;27.21
21869;BME280;11099;41.564;23.296;2023-08-17T12:04:10;97199.75;;;36.08;27.30
21869;BME280;11099;41.564;23.296;2023-08-17T12:06:43;97175.13;;;36.10;26.86
21869;BME280;11099;41.564;23.296;2023-08-17T12:09:09;97072.16;;;35.35;26.83
21869;BME280;11099;41.564;23.296;2023-08-17T12:11:34;97189.94;;;36.27;26.73
21869;BME280;11099;41.564;23.296;2023-08-17T12:14:08;97146.63;;;36.09;26.84
21869;BME280;11099;41.564;23.296;2023-08-17T12:16:45;97130.09;;;35.95;26.59
21869;BME280;11099;41.564;23.296;2023-08-17T12:19:11;97165.19;;;35.83;26.87
21869;BME280;11099;41.564;23.296;2023-08-17T12:21:36;97158.59;;;35.80;27.30
21869;BME280;11099;41.564;23.296;2023-08-17T12:24:04;97146.34;;;35.67;27.85
21869;BME280;11099;41.564;23.296;2023-08-17T12:26:29;97158.72;;;35.92;27.27
21869;BME280;11099;41.564;23.296;2023-08-17T12:28:58;97120.53;;;35.40;26.81
21869;BME280;11099;41.564;23.296;2023-08-17T12:31:23;97177.63;;;35.73;27.29
21869;BME280;11099;41.564;23.296;2023-08-17T12:33:50;97127.66;;;35.61;27.57
21869;BME280;11099;41.564;23.296;2023-08-17T12:36:15;97130.75;;;35.69;27.53
21869;BME280;11099;41.564;23.296;2023-08-17T12:38:41;97112.63;;;35.88;27.14
21869;BME280;11099;41.564;23.296;2023-08-17T12:41:10;97156.50;;;36.36;26.70
21869;BME280;11099;41.564;23.296;2023-08-17T12:43:37;97151.41;;;36.29;26.61
21869;BME280;11099;41.564;23.296;2023-08-17T12:46:03;97153.56;;;36.20;27.36
21869;BME280;11099;41.564;23.296;2023-08-17T12:48:28;97115.88;;;36.07;27.27
21869;BME280;11099;41.564;23.296;2023-08-17T12:50:54;97141.22;;;36.21;26.95
21869;BME280;11099;41.564;23.296;2023-08-17T12:53:19;97121.19;;;35.70;27.27
21869;BME280;11099;41.564;23.296;2023-08-17T12:55:45;97108.75;;;35.80;27.68
21869;BME280;11099;41.564;23.296;2023-08-17T12:58:10;97143.41;;;35.76;27.82
21869;BME280;11099;41.564;23.296;2023-08-17T13:00:36;97081.06;;;35.25;27.16
21869;BME280;11099;41.564;23.296;2023-08-17T13:03:02;97161.88;;;36.20;27.37